createdAt,value
2022-12-19T00:01:39.160Z,16.20
2022-12-19T00:04:09.133Z,15.40
2022-12-19T00:06:41.398Z,14.50
2022-12-19T00:09:11.037Z,16.48
2022-12-19T00:11:38.792Z,15.98
2022-12-19T00:14:06.346Z,15.00
2022-12-19T00:16:33.900Z,14.55
2022-12-19T00:19:02.767Z,15.15
2022-12-19T00:21:35.049Z,14.25
2022-12-19T00:24:12.407Z,14.30
2022-12-19T00:26:49.234Z,14.25
2022-12-19T00:29:16.868Z,13.00
2022-12-19T00:31:44.794Z,13.38
2022-12-19T00:34:14.882Z,13.95
2022-12-19T00:36:43.865Z,13.68
2022-12-19T00:39:16.446Z,12.82
2022-12-19T00:41:46.384Z,12.88
2022-12-19T00:44:16.589Z,12.93
2022-12-19T00:46:46.202Z,12.52
2022-12-19T00:49:20.278Z,11.98
2022-12-19T00:51:47.586Z,10.77
2022-12-19T00:54:15.064Z,11.50
2022-12-19T00:56:42.083Z,11.30
2022-12-19T00:59:10.740Z,12.23
2022-12-19T01:01:41.843Z,12.85
2022-12-19T01:04:30.681Z,11.55
2022-12-19T01:07:02.437Z,11.88
2022-12-19T01:09:35.309Z,11.25
2022-12-19T01:12:23.966Z,10.73
2022-12-19T01:14:54.881Z,10.93
2022-12-19T01:17:23.572Z,10.98
2022-12-19T01:19:54.118Z,10.73
2022-12-19T01:22:21.119Z,11.07
2022-12-19T01:24:48.314Z,10.80
2022-12-19T01:27:16.085Z,11.75
2022-12-19T01:29:52.401Z,12.18
2022-12-19T01:32:20.972Z,10.57
2022-12-19T01:34:48.322Z,10.38
2022-12-19T01:37:19.192Z,11.38
2022-12-19T01:39:46.380Z,10.27
2022-12-19T01:42:23.100Z,10.25
2022-12-19T01:45:13.860Z,10.90
2022-12-19T01:47:50.487Z,10.07
2022-12-19T01:50:36.832Z,10.93
2022-12-19T01:53:11.439Z,10.52
2022-12-19T01:55:43.177Z,12.50
2022-12-19T02:00:41.118Z,11.23
2022-12-19T02:03:29.636Z,10.93
2022-12-19T02:05:58.886Z,10.68
2022-12-19T02:08:28.389Z,11.88
2022-12-19T02:10:59.441Z,10.98
2022-12-19T02:13:26.847Z,10.90
2022-12-19T02:16:12.164Z,11.13
2022-12-19T02:18:59.581Z,10.55
2022-12-19T02:21:35.131Z,10.70
2022-12-19T02:24:14.471Z,11.95
2022-12-19T02:27:00.448Z,11.82
2022-12-19T02:29:41.975Z,11.15
2022-12-19T02:32:34.754Z,11.85
2022-12-19T02:35:16.312Z,10.52
2022-12-19T02:37:51.169Z,11.57
2022-12-19T02:40:26.674Z,13.13
2022-12-19T02:42:59.498Z,11.60
2022-12-19T02:45:32.478Z,11.85
2022-12-19T02:48:05.812Z,10.88
2022-12-19T02:50:50.019Z,11.52
2022-12-19T02:53:22.449Z,11.75
2022-12-19T02:56:09.392Z,10.95
2022-12-19T02:58:49.372Z,11.85
2022-12-19T03:01:38.533Z,12.52
2022-12-19T03:04:25.477Z,11.85
2022-12-19T03:06:55.344Z,11.55
2022-12-19T03:09:48.687Z,12.00
2022-12-19T03:12:25.506Z,10.70
2022-12-19T03:14:54.433Z,11.20
2022-12-19T03:17:21.766Z,10.07
2022-12-19T03:19:49.192Z,11.27
2022-12-19T03:22:16.361Z,11.25
2022-12-19T03:24:43.477Z,10.27
2022-12-19T03:27:24.921Z,9.88
2022-12-19T03:30:09.717Z,11.27
2022-12-19T03:32:39.668Z,11.05
2022-12-19T03:35:13.687Z,11.15
2022-12-19T03:37:43.290Z,10.50
2022-12-19T03:40:22.491Z,10.40
2022-12-19T03:43:11.886Z,9.65
2022-12-19T03:45:57.989Z,10.05
2022-12-19T03:48:41.076Z,9.15
2022-12-19T03:51:26.187Z,9.65
2022-12-19T03:53:55.857Z,9.43
2022-12-19T03:56:38.473Z,9.10
2022-12-19T03:59:24.693Z,8.52
2022-12-19T04:01:54.159Z,9.02
2022-12-19T04:04:23.761Z,9.02
2022-12-19T04:06:52.340Z,9.20
2022-12-19T04:09:23.572Z,8.98
2022-12-19T04:12:06.806Z,8.55
2022-12-19T04:14:36.890Z,7.43
2022-12-19T04:17:20.676Z,8.70
2022-12-19T04:19:59.423Z,7.82
2022-12-19T04:22:35.563Z,7.50
2022-12-19T04:25:05.734Z,7.55
2022-12-19T04:27:35.940Z,7.35
2022-12-19T04:30:07.096Z,6.80
2022-12-19T04:32:36.812Z,6.35
2022-12-19T04:35:04.303Z,6.65
2022-12-19T04:37:32.395Z,7.22
2022-12-19T04:39:59.851Z,6.68
2022-12-19T04:42:26.998Z,6.35
2022-12-19T04:44:54.375Z,6.53
2022-12-19T04:47:21.382Z,6.03
2022-12-19T04:49:48.467Z,5.95
2022-12-19T04:52:16.040Z,6.30
2022-12-19T04:54:43.059Z,5.75
2022-12-19T04:57:09.991Z,5.90
2022-12-19T04:59:37.162Z,5.90
2022-12-19T05:02:06.838Z,5.10
2022-12-19T05:04:35.403Z,5.77
2022-12-19T05:07:02.680Z,5.50
2022-12-19T05:09:29.654Z,5.68
2022-12-19T05:11:56.628Z,5.45
2022-12-19T05:14:23.727Z,5.63
2022-12-19T05:16:53.743Z,5.45
2022-12-19T05:19:23.140Z,6.13
2022-12-19T05:21:50.229Z,5.90
2022-12-19T05:24:17.390Z,5.45
2022-12-19T05:26:44.506Z,5.25
2022-12-19T05:29:11.475Z,6.40
2022-12-19T05:31:38.413Z,5.15
2022-12-19T05:34:05.380Z,6.40
2022-12-19T05:36:32.830Z,5.43
2022-12-19T05:39:00.462Z,5.65
2022-12-19T05:41:27.590Z,4.97
2022-12-19T05:43:56.312Z,5.05
2022-12-19T05:46:25.376Z,5.13
2022-12-19T05:48:52.518Z,5.03
2022-12-19T05:51:20.035Z,4.95
2022-12-19T05:53:47.451Z,5.95
2022-12-19T05:56:20.238Z,5.55
2022-12-19T05:58:47.452Z,5.35
2022-12-19T06:01:20.444Z,4.97
2022-12-19T06:03:48.144Z,5.00
2022-12-19T06:06:20.924Z,5.03
2022-12-19T06:08:48.168Z,4.43
2022-12-19T06:11:15.400Z,5.35
2022-12-19T06:13:42.479Z,4.80
2022-12-19T06:16:14.825Z,4.75
2022-12-19T06:18:45.046Z,5.10
2022-12-19T06:21:17.500Z,5.05
2022-12-19T06:26:18.624Z,4.68
2022-12-19T06:28:46.293Z,4.57
2022-12-19T06:31:13.886Z,5.30
2022-12-19T06:33:41.316Z,4.78
2022-12-19T06:36:23.081Z,5.05
2022-12-19T06:38:50.877Z,5.43
2022-12-19T06:41:37.525Z,4.85
2022-12-19T06:44:08.067Z,5.03
2022-12-19T06:46:36.653Z,4.50
2022-12-19T06:49:04.414Z,5.20
2022-12-19T06:51:31.586Z,5.68
2022-12-19T06:53:58.509Z,4.65
2022-12-19T06:56:25.471Z,4.88
2022-12-19T06:58:53.026Z,4.45
2022-12-19T07:01:21.288Z,4.65
2022-12-19T07:03:49.658Z,4.45
2022-12-19T07:06:16.973Z,4.20
2022-12-19T07:08:45.580Z,4.82
2022-12-19T07:11:12.545Z,4.53
2022-12-19T07:13:39.627Z,5.05
2022-12-19T07:16:08.859Z,4.95
2022-12-19T07:18:38.977Z,5.10
2022-12-19T07:21:07.797Z,4.35
2022-12-19T07:23:36.050Z,4.55
2022-12-19T07:26:03.762Z,4.80
2022-12-19T07:28:31.611Z,4.38
2022-12-19T07:30:58.507Z,4.70
2022-12-19T07:33:25.469Z,4.72
2022-12-19T07:35:52.582Z,4.70
2022-12-19T07:38:19.575Z,4.43
2022-12-19T07:40:46.725Z,4.60
2022-12-19T07:43:13.880Z,4.93
2022-12-19T07:45:40.815Z,4.63
2022-12-19T07:48:08.034Z,4.65
2022-12-19T07:50:35.116Z,4.28
2022-12-19T07:53:02.907Z,4.68
2022-12-19T07:55:30.241Z,3.90
2022-12-19T07:57:57.152Z,5.38
2022-12-19T08:00:24.753Z,4.18
2022-12-19T08:02:52.166Z,4.70
2022-12-19T08:05:19.300Z,4.13
2022-12-19T08:07:46.237Z,4.40
2022-12-19T08:10:15.877Z,4.63
2022-12-19T08:12:43.315Z,3.88
2022-12-19T08:15:11.022Z,4.57
2022-12-19T08:17:41.375Z,3.80
2022-12-19T08:20:09.812Z,4.32
2022-12-19T08:22:36.855Z,4.03
2022-12-19T08:25:04.742Z,4.53
2022-12-19T08:27:34.828Z,4.03
2022-12-19T08:30:01.752Z,4.32
2022-12-19T08:32:28.805Z,3.80
2022-12-19T08:34:56.754Z,4.00
2022-12-19T08:37:24.005Z,4.90
2022-12-19T08:39:52.168Z,4.28
2022-12-19T08:42:19.285Z,4.45
2022-12-19T08:44:46.355Z,4.10
2022-12-19T08:47:13.555Z,6.13
2022-12-19T08:49:40.919Z,4.95
2022-12-19T08:52:08.088Z,3.92
2022-12-19T08:54:35.311Z,3.97
2022-12-19T08:57:02.256Z,3.50
2022-12-19T08:59:30.905Z,3.38
2022-12-19T09:02:00.073Z,3.65
2022-12-19T09:06:02.141Z,3.10
2022-12-19T09:07:16.213Z,3.38
2022-12-19T09:09:44.633Z,3.63
2022-12-19T09:12:13.697Z,3.45
2022-12-19T09:14:41.110Z,3.55
2022-12-19T09:17:08.282Z,3.95
2022-12-19T09:19:36.741Z,3.25
2022-12-19T09:22:04.809Z,3.03
2022-12-19T09:24:31.816Z,3.53
2022-12-19T09:26:58.701Z,2.97
2022-12-19T09:29:27.839Z,3.08
2022-12-19T09:31:57.212Z,3.30
2022-12-19T09:34:37.970Z,4.38
2022-12-19T09:37:16.392Z,3.35
2022-12-19T09:39:48.013Z,2.78
2022-12-19T09:42:40.658Z,2.90
2022-12-19T09:45:33.114Z,2.65
2022-12-19T09:48:01.706Z,3.30
2022-12-19T09:50:54.410Z,2.75
2022-12-19T09:53:54.332Z,3.00
2022-12-19T09:56:26.323Z,3.40
2022-12-19T09:59:00.624Z,2.97
2022-12-19T10:01:37.650Z,3.30
2022-12-19T10:04:11.908Z,2.67
2022-12-19T10:07:20.503Z,3.20
2022-12-19T10:11:49.563Z,2.92
2022-12-19T10:12:59.625Z,3.05
2022-12-19T10:15:59.908Z,2.80
2022-12-19T10:18:56.054Z,3.13
2022-12-19T10:22:07.445Z,2.58
2022-12-19T10:25:09.508Z,2.65
2022-12-19T10:28:04.160Z,3.22
2022-12-19T10:30:39.922Z,2.35
2022-12-19T10:33:26.836Z,2.60
2022-12-19T10:36:02.195Z,2.80
2022-12-19T10:38:50.291Z,2.10
2022-12-19T10:41:24.170Z,2.47
2022-12-19T10:44:08.484Z,2.20
2022-12-19T10:46:46.188Z,2.13
2022-12-19T10:49:19.737Z,2.58
2022-12-19T10:52:01.276Z,2.47
2022-12-19T10:54:37.360Z,2.05
2022-12-19T10:57:23.146Z,2.00
2022-12-19T11:00:17.432Z,2.55
2022-12-19T11:02:49.368Z,1.95
2022-12-19T11:05:39.540Z,1.95
2022-12-19T11:08:06.846Z,2.38
2022-12-19T11:12:18.868Z,2.03
2022-12-19T11:18:35.887Z,3.22
2022-12-19T11:20:53.238Z,1.98
2022-12-19T11:29:29.801Z,2.10
2022-12-19T11:29:31.094Z,2.25
2022-12-19T11:29:55.167Z,1.90
2022-12-19T11:30:09.924Z,1.92
2022-12-19T11:34:06.096Z,2.30
2022-12-19T11:36:33.323Z,2.42
2022-12-19T11:39:01.179Z,1.65
2022-12-19T11:41:41.174Z,2.03
2022-12-19T11:44:29.859Z,1.90
2022-12-19T11:47:25.636Z,2.25
2022-12-19T11:49:59.963Z,1.92
2022-12-19T11:56:00.194Z,2.95
2022-12-19T11:58:29.887Z,2.10
2022-12-19T12:01:27.458Z,2.58
2022-12-19T12:04:15.397Z,2.08
2022-12-19T12:06:52.605Z,1.90
2022-12-19T12:12:46.666Z,1.98
2022-12-19T12:22:30.205Z,1.90
2022-12-19T12:28:08.518Z,2.03
2022-12-19T12:31:04.928Z,2.20
2022-12-19T12:31:41.319Z,2.20
2022-12-19T12:31:42.782Z,1.70
2022-12-19T12:31:44.956Z,2.10
2022-12-19T12:35:09.418Z,2.03
2022-12-19T12:38:21.688Z,2.03
2022-12-19T12:40:56.474Z,1.55
2022-12-19T12:43:57.913Z,2.45
2022-12-19T12:46:31.439Z,1.70
2022-12-19T12:49:05.808Z,1.98
2022-12-19T12:51:35.045Z,1.65
2022-12-19T12:54:15.259Z,1.98
2022-12-19T12:56:43.336Z,2.00
2022-12-19T12:59:23.981Z,2.03
2022-12-19T13:01:55.278Z,2.10
2022-12-19T13:04:31.333Z,1.80
2022-12-19T13:07:03.994Z,1.92
2022-12-19T13:09:36.900Z,1.88
2022-12-19T13:12:46.733Z,1.65
2022-12-19T13:15:38.394Z,2.00
2022-12-19T13:18:33.113Z,1.70
2022-12-19T13:21:02.708Z,1.70
2022-12-19T13:23:29.715Z,1.75
2022-12-19T13:25:57.383Z,1.92
2022-12-19T13:28:24.586Z,1.77
2022-12-19T13:31:21.328Z,2.10
2022-12-19T13:33:56.568Z,1.73
2022-12-19T13:39:47.685Z,1.65
2022-12-19T13:40:07.408Z,1.83
2022-12-19T13:43:09.366Z,1.77
2022-12-19T13:45:41.671Z,1.67
2022-12-19T13:48:21.114Z,1.80
2022-12-19T13:50:49.705Z,2.20
2022-12-19T13:53:26.361Z,2.03
2022-12-19T13:56:05.618Z,1.83
2022-12-19T13:58:52.600Z,1.98
2022-12-19T14:01:31.038Z,1.70
2022-12-19T14:04:08.081Z,2.10
2022-12-19T14:06:46.343Z,1.70
2022-12-19T14:11:27.716Z,2.00
2022-12-19T14:13:57.268Z,1.77
2022-12-19T14:15:41.858Z,2.30
2022-12-19T14:18:44.819Z,2.88
2022-12-19T14:22:06.033Z,3.22
2022-12-19T14:24:20.047Z,1.83
2022-12-19T14:28:19.924Z,2.30
2022-12-19T14:30:28.367Z,2.10
2022-12-19T14:33:44.124Z,2.53
2022-12-19T14:36:10.525Z,1.95
2022-12-19T14:39:24.644Z,2.20
2022-12-19T14:41:46.991Z,1.95
2022-12-19T14:52:08.243Z,2.15
2022-12-19T14:52:35.251Z,2.05
2022-12-19T14:54:09.146Z,2.20
2022-12-19T14:54:22.081Z,1.95
2022-12-19T14:56:30.966Z,1.70
2022-12-19T14:58:58.614Z,2.08
2022-12-19T15:01:32.309Z,2.05
2022-12-19T15:04:48.951Z,1.98
2022-12-19T15:07:07.121Z,1.70
2022-12-19T15:10:59.887Z,1.50
2022-12-19T15:14:47.964Z,1.88
2022-12-19T15:16:07.528Z,1.70
2022-12-19T15:18:41.280Z,1.90
2022-12-19T15:21:14.430Z,2.55
2022-12-19T15:23:44.088Z,4.30
2022-12-19T15:26:46.784Z,2.58
2022-12-19T15:29:19.870Z,1.83
2022-12-19T15:31:49.195Z,2.10
2022-12-19T15:34:41.933Z,2.30
2022-12-19T15:37:16.474Z,2.67
2022-12-19T15:39:44.584Z,1.75
2022-12-19T15:42:22.878Z,1.92
2022-12-19T15:44:52.117Z,1.92
2022-12-19T15:47:39.353Z,1.85
2022-12-19T15:50:25.138Z,1.60
2022-12-19T15:52:56.178Z,1.67
2022-12-19T15:55:26.837Z,1.95
2022-12-19T15:58:00.337Z,2.10
2022-12-19T16:00:35.223Z,2.08
2022-12-19T16:05:50.111Z,2.10
2022-12-19T16:08:20.881Z,1.98
2022-12-19T16:11:01.110Z,2.20
2022-12-19T16:13:32.390Z,2.78
2022-12-19T16:16:00.109Z,1.77
2022-12-19T16:18:27.420Z,1.60
2022-12-19T16:20:57.456Z,2.30
2022-12-19T16:23:25.554Z,1.80
2022-12-19T16:25:52.970Z,1.90
2022-12-19T16:28:28.646Z,2.05
2022-12-19T16:30:57.122Z,2.20
2022-12-19T16:33:29.756Z,2.00
2022-12-19T16:36:06.658Z,2.53
2022-12-19T16:38:35.611Z,1.95
2022-12-19T16:41:03.439Z,1.90
2022-12-19T16:43:32.271Z,2.00
2022-12-19T16:46:01.527Z,1.55
2022-12-19T16:48:30.450Z,2.28
2022-12-19T16:51:00.509Z,2.03
2022-12-19T16:53:28.060Z,1.65
2022-12-19T16:55:56.688Z,1.90
2022-12-19T16:58:28.298Z,2.45
2022-12-19T17:00:56.805Z,2.20
2022-12-19T17:03:32.572Z,1.73
2022-12-19T17:06:00.331Z,1.75
2022-12-19T17:08:27.806Z,1.77
2022-12-19T17:10:55.444Z,2.10
2022-12-19T17:13:23.997Z,2.50
2022-12-19T17:15:56.687Z,2.08
2022-12-19T17:18:32.761Z,1.92
2022-12-19T17:21:02.094Z,2.05
2022-12-19T17:23:32.623Z,2.08
2022-12-19T17:26:00.906Z,1.90
2022-12-19T17:28:29.524Z,2.00
2022-12-19T17:30:59.780Z,1.77
2022-12-19T17:33:39.420Z,1.98
2022-12-19T17:36:10.980Z,2.15
2022-12-19T17:38:39.113Z,1.95
2022-12-19T17:41:06.328Z,2.33
2022-12-19T17:43:33.428Z,2.20
2022-12-19T17:46:00.763Z,1.80
2022-12-19T17:48:30.578Z,2.78
2022-12-19T17:50:58.328Z,2.30
2022-12-19T17:53:26.426Z,2.50
2022-12-19T17:55:53.651Z,2.10
2022-12-19T17:58:21.783Z,2.03
2022-12-19T18:00:52.367Z,1.95
2022-12-19T18:03:23.522Z,1.85
2022-12-19T18:05:53.063Z,2.00
2022-12-19T18:08:30.036Z,2.00
2022-12-19T18:11:00.594Z,2.00
2022-12-19T18:13:29.211Z,1.88
2022-12-19T18:15:58.673Z,1.73
2022-12-19T18:18:29.791Z,1.83
2022-12-19T18:20:59.319Z,2.58
2022-12-19T18:23:26.926Z,1.80
2022-12-19T18:25:59.442Z,1.88
2022-12-19T18:28:28.963Z,1.73
2022-12-19T18:31:03.334Z,1.80
2022-12-19T18:33:38.214Z,1.83
2022-12-19T18:36:06.931Z,1.77
2022-12-19T18:38:34.304Z,1.92
2022-12-19T18:41:01.548Z,2.33
2022-12-19T18:43:31.220Z,2.30
2022-12-19T18:45:58.427Z,2.15
2022-12-19T18:48:32.991Z,2.10
2022-12-19T18:51:01.322Z,1.90
2022-12-19T18:53:35.164Z,1.63
2022-12-19T18:56:05.154Z,1.65
2022-12-19T18:58:32.894Z,1.73
2022-12-19T19:01:01.996Z,1.63
2022-12-19T19:03:35.333Z,2.20
2022-12-19T19:06:03.918Z,2.10
2022-12-19T19:08:33.697Z,3.10
2022-12-19T19:11:12.690Z,2.20
2022-12-19T19:13:39.993Z,2.30
2022-12-19T19:16:18.979Z,2.08
2022-12-19T19:18:50.498Z,2.67
2022-12-19T19:21:18.208Z,2.05
2022-12-19T19:23:55.151Z,2.22
2022-12-19T19:26:22.514Z,1.90
2022-12-19T19:28:52.581Z,1.73
2022-12-19T19:31:23.553Z,2.05
2022-12-19T19:33:55.957Z,1.90
2022-12-19T19:36:28.424Z,2.03
2022-12-19T19:38:57.424Z,2.00
2022-12-19T19:41:29.953Z,1.88
2022-12-19T19:43:59.163Z,1.70
2022-12-19T19:46:27.465Z,2.20
2022-12-19T19:48:54.837Z,1.75
2022-12-19T19:51:21.996Z,2.13
2022-12-19T19:53:49.018Z,2.25
2022-12-19T19:56:15.907Z,2.30
2022-12-19T19:58:42.976Z,2.08
2022-12-19T20:01:11.693Z,2.35
2022-12-19T20:03:40.447Z,2.40
2022-12-19T20:06:08.140Z,2.40
2022-12-19T20:08:40.101Z,2.22
2022-12-19T20:11:09.261Z,2.55
2022-12-19T20:13:37.664Z,2.22
2022-12-19T20:16:09.340Z,2.10
2022-12-19T20:18:37.610Z,2.22
2022-12-19T20:21:12.341Z,1.50
2022-12-19T20:23:41.863Z,1.48
2022-12-19T20:26:09.066Z,1.80
2022-12-19T20:28:37.817Z,1.48
2022-12-19T20:31:07.543Z,2.10
2022-12-19T20:33:34.689Z,2.10
2022-12-19T20:36:10.658Z,1.98
2022-12-19T20:38:38.774Z,1.77
2022-12-19T20:41:05.793Z,1.80
2022-12-19T20:43:38.906Z,1.70
2022-12-19T20:46:17.933Z,1.70
2022-12-19T20:48:46.198Z,3.25
2022-12-19T20:51:15.201Z,1.60
2022-12-19T20:53:43.066Z,2.33
2022-12-19T20:56:15.171Z,2.03
2022-12-19T20:58:43.539Z,1.80
2022-12-19T21:01:14.222Z,2.30
2022-12-19T21:03:43.858Z,1.90
2022-12-19T21:06:12.926Z,1.75
2022-12-19T21:08:40.694Z,1.70
2022-12-19T21:11:09.991Z,1.30
2022-12-19T21:13:38.775Z,1.75
2022-12-19T21:16:09.045Z,2.13
2022-12-19T21:18:37.973Z,1.40
2022-12-19T21:21:06.142Z,1.80
2022-12-19T21:23:33.995Z,1.60
2022-12-19T21:26:02.659Z,1.95
2022-12-19T21:28:29.933Z,1.33
2022-12-19T21:31:02.022Z,1.30
2022-12-19T21:33:29.784Z,1.52
2022-12-19T21:35:57.226Z,1.65
2022-12-19T21:38:24.871Z,1.50
2022-12-19T21:40:52.124Z,1.30
2022-12-19T21:43:19.010Z,1.33
2022-12-19T21:45:47.216Z,1.67
2022-12-19T21:48:15.862Z,1.38
2022-12-19T21:50:42.970Z,1.52
2022-12-19T21:53:11.122Z,1.50
2022-12-19T21:55:38.113Z,1.70
2022-12-19T21:58:05.128Z,1.50
2022-12-19T22:00:32.333Z,1.80
2022-12-19T22:03:14.130Z,1.70
2022-12-19T22:05:42.222Z,2.55
2022-12-19T22:08:10.812Z,1.92
2022-12-19T22:10:39.722Z,1.48
2022-12-19T22:13:06.822Z,1.98
2022-12-19T22:15:36.238Z,1.90
2022-12-19T22:18:03.176Z,1.70
2022-12-19T22:20:30.190Z,1.63
2022-12-19T22:22:57.275Z,1.60
2022-12-19T22:25:24.451Z,1.17
2022-12-19T22:27:51.686Z,1.48
2022-12-19T22:30:19.001Z,1.40
2022-12-19T22:32:46.132Z,1.70
2022-12-19T22:35:13.048Z,1.58
2022-12-19T22:37:40.044Z,1.27
2022-12-19T22:40:08.234Z,1.88
2022-12-19T22:42:36.046Z,2.05
2022-12-19T22:45:03.099Z,1.55
2022-12-19T22:47:30.014Z,1.52
2022-12-19T22:49:57.010Z,1.42
2022-12-19T22:52:24.882Z,1.45
2022-12-19T22:54:51.983Z,2.08
2022-12-19T22:57:19.118Z,1.55
2022-12-19T22:59:46.092Z,1.35
2022-12-19T23:02:14.317Z,1.33
2022-12-19T23:04:41.417Z,1.73
2022-12-19T23:07:08.567Z,1.30
2022-12-19T23:09:35.753Z,1.67
2022-12-19T23:12:03.043Z,1.52
2022-12-19T23:14:30.158Z,1.67
2022-12-19T23:16:58.388Z,1.55
2022-12-19T23:19:25.398Z,1.40
2022-12-19T23:21:52.539Z,1.48
2022-12-19T23:24:20.237Z,1.35
2022-12-19T23:26:48.117Z,1.10
2022-12-19T23:29:15.834Z,1.33
2022-12-19T23:31:45.068Z,1.30
2022-12-19T23:34:12.767Z,1.60
2022-12-19T23:39:27.060Z,1.20
2022-12-19T23:41:55.212Z,1.75
2022-12-19T23:44:22.497Z,1.52
2022-12-19T23:46:49.728Z,1.40
2022-12-19T23:49:17.076Z,1.48
2022-12-19T23:51:44.012Z,1.40
2022-12-19T23:54:11.432Z,1.60
2022-12-19T23:56:38.698Z,1.25
2022-12-19T23:59:06.799Z,1.42
